Time;durP1;ratioP1;P1;durP2;ratioP2;P2;SDS_P1;SDS_P2;PMS_P1;PMS_P2;Temp;Humidity;BMP_temperature;BMP_pressure;BME280_temperature;BME280_humidity;BME280_pressure;Samples;Min_cycle;Max_cycle;Signal;HPM_P1;HPM_P2
2021/07/25 00:00:41;;;;;;;;;2.75;2.75;;;;;-145.01;100.00;59511.53;4899327;29;45555;-73
2021/07/25 00:03:10;;;;;;;;;4.00;3.25;;;;;-145.01;100.00;59511.53;4899458;29;45485;-72
2021/07/25 00:05:36;;;;;;;;;3.25;3.00;;;;;-145.01;100.00;59511.53;4899554;29;45691;-72
2021/07/25 00:08:02;;;;;;;;;5.00;4.00;;;;;-145.01;100.00;59511.53;4899764;29;46530;-73
2021/07/25 00:10:27;;;;;;;;;3.00;3.00;;;;;-145.01;100.00;59511.53;4899293;28;45757;-73
2021/07/25 00:12:53;;;;;;;;;1.75;1.75;;;;;-145.01;100.00;59511.53;4899319;29;45549;-72
2021/07/25 00:15:19;;;;;;;;;3.25;3.25;;;;;-145.01;100.00;59511.53;4899397;29;45386;-72
2021/07/25 00:17:44;;;;;;;;;4.00;2.75;;;;;-145.01;100.00;59511.53;4899391;29;45511;-72
2021/07/25 00:20:10;;;;;;;;;4.25;3.00;;;;;-145.01;100.00;59511.53;4900113;29;45412;-72
2021/07/25 00:22:35;;;;;;;;;2.50;1.50;;;;;-145.01;100.00;59511.53;4899230;29;45514;-72
2021/07/25 00:25:08;;;;;;;;;2.00;2.00;;;;;-145.01;100.00;59511.53;4899249;29;45260;-72
2021/07/25 00:27:36;;;;;;;;;3.25;2.75;;;;;-145.01;100.00;59511.53;4899012;29;46961;-71
2021/07/25 00:30:02;;;;;;;;;2.75;2.75;;;;;-145.01;100.00;59511.53;4898911;29;45259;-71
2021/07/25 00:32:27;;;;;;;;;3.00;3.00;;;;;-145.01;100.00;59511.53;4899195;29;45298;-72
2021/07/25 00:34:53;;;;;;;;;2.00;2.00;;;;;-145.01;100.00;59511.53;4899882;29;45402;-73
2021/07/25 00:37:18;;;;;;;;;3.50;3.25;;;;;-145.01;100.00;59511.53;4881479;29;47644;-73
2021/07/25 00:39:44;;;;;;;;;1.75;1.75;;;;;-145.01;100.00;59511.53;4898975;29;45454;-72
2021/07/25 00:42:09;;;;;;;;;2.75;2.00;;;;;-145.01;100.00;59511.53;4899136;29;45527;-74
2021/07/25 00:44:34;;;;;;;;;4.50;2.75;;;;;-145.01;100.00;59511.53;4899157;29;45535;-74
2021/07/25 00:47:01;;;;;;;;;2.75;2.75;;;;;-145.01;100.00;59511.53;4899288;29;47566;-75
2021/07/25 00:49:28;;;;;;;;;2.00;2.00;;;;;-145.01;100.00;59511.53;4898167;29;45431;-73
2021/07/25 00:51:54;;;;;;;;;3.00;3.00;;;;;-145.01;100.00;59511.53;4898397;29;45607;-74
2021/07/25 00:54:20;;;;;;;;;2.25;2.25;;;;;-145.01;100.00;59511.53;4898954;29;45478;-73
2021/07/25 00:56:46;;;;;;;;;3.50;3.50;;;;;-145.01;100.00;59511.53;4898585;29;46451;-73
2021/07/25 00:59:12;;;;;;;;;1.00;1.00;;;;;-145.01;100.00;59511.53;4882088;29;45350;-73
2021/07/25 01:01:37;;;;;;;;;2.00;2.00;;;;;-145.01;100.00;59511.53;4898494;29;45521;-73
2021/07/25 01:04:13;;;;;;;;;3.25;3.25;;;;;-145.01;100.00;59511.53;4873361;29;45324;-73
2021/07/25 01:07:18;;;;;;;;;3.75;2.75;;;;;-145.01;100.00;59511.53;4889289;29;47089;-73
2021/07/25 01:10:07;;;;;;;;;5.00;4.00;;;;;-145.01;100.00;59511.53;4804477;29;45472;-74
2021/07/25 01:12:50;;;;;;;;;3.75;2.25;;;;;-145.01;100.00;59511.53;4885238;29;45569;-73
2021/07/25 01:15:23;;;;;;;;;2.25;2.25;;;;;-145.01;100.00;59511.53;4897912;29;45492;-74
2021/07/25 01:17:49;;;;;;;;;3.25;2.00;;;;;-145.01;100.00;59511.53;4883401;29;46205;-74
2021/07/25 01:20:15;;;;;;;;;3.00;2.00;;;;;-145.01;100.00;59511.53;4899205;29;45470;-73
2021/07/25 01:22:44;;;;;;;;;2.50;2.25;;;;;-145.01;100.00;59511.53;4898003;29;45514;-73
2021/07/25 01:25:12;;;;;;;;;5.00;2.00;;;;;-145.01;100.00;59511.53;4898373;29;45323;-72
2021/07/25 01:27:43;;;;;;;;;0.50;0.50;;;;;-145.01;100.00;59511.53;4896831;28;46897;-73
2021/07/25 01:30:16;;;;;;;;;1.50;1.50;;;;;-145.01;100.00;59511.53;4898020;29;45478;-73
2021/07/25 01:32:44;;;;;;;;;3.50;3.50;;;;;-145.01;100.00;59511.53;4898290;29;45291;-73
2021/07/25 01:35:13;;;;;;;;;0.50;0.50;;;;;-145.01;100.00;59511.53;4898684;29;45284;-73
2021/07/25 01:37:39;;;;;;;;;3.00;3.00;;;;;-145.01;100.00;59511.53;4897614;29;45490;-73
2021/07/25 01:40:31;;;;;;;;;2.25;2.25;;;;;-145.01;100.00;59511.53;4898009;29;45537;-73
2021/07/25 01:42:56;;;;;;;;;3.00;3.00;;;;;-145.01;100.00;59511.53;4894984;29;45578;-72
2021/07/25 01:45:22;;;;;;;;;2.00;2.00;;;;;-145.01;100.00;59511.53;4898224;29;45598;-73
2021/07/25 01:47:48;;;;;;;;;2.25;2.25;;;;;-145.01;100.00;59511.53;4898027;29;46844;-72
2021/07/25 01:50:14;;;;;;;;;2.50;2.50;;;;;-145.01;100.00;59511.53;4898480;29;45415;-73
2021/07/25 01:52:40;;;;;;;;;4.25;2.25;;;;;-145.01;100.00;59511.53;4898039;29;45479;-72
2021/07/25 01:55:07;;;;;;;;;2.50;2.00;;;;;-145.01;100.00;59511.53;4897821;29;45514;-72
2021/07/25 01:57:32;;;;;;;;;5.25;3.50;;;;;-145.01;100.00;59511.53;4897501;29;46856;-73
2021/07/25 01:59:57;;;;;;;;;3.75;2.75;;;;;-145.01;100.00;59511.53;4897487;29;45529;-72
2021/07/25 02:02:23;;;;;;;;;3.50;2.75;;;;;-145.01;100.00;59511.53;4897159;29;45392;-73
2021/07/25 02:04:48;;;;;;;;;5.50;1.75;;;;;-145.01;100.00;59511.53;4897964;29;45559;-72
2021/07/25 02:07:14;;;;;;;;;3.00;3.00;;;;;-145.01;100.00;59511.53;4897649;29;46455;-73
2021/07/25 02:09:39;;;;;;;;;3.50;3.50;;;;;-145.01;100.00;59511.53;4897914;29;45420;-73
2021/07/25 02:12:07;;;;;;;;;6.25;3.25;;;;;-145.01;100.00;59511.53;4897803;29;45362;-72
2021/07/25 02:14:33;;;;;;;;;3.50;3.50;;;;;-145.01;100.00;59511.53;4897967;29;45447;-72
2021/07/25 02:17:00;;;;;;;;;2.50;2.50;;;;;-145.01;100.00;59511.53;4898110;29;46283;-72
2021/07/25 02:19:26;;;;;;;;;2.50;2.00;;;;;-145.01;100.00;59511.53;4897271;29;45462;-72
2021/07/25 02:21:52;;;;;;;;;6.25;3.00;;;;;-145.01;100.00;59511.53;4897706;29;45882;-72
2021/07/25 02:24:19;;;;;;;;;4.00;3.50;;;;;-145.01;100.00;59511.53;4897377;29;45446;-72
2021/07/25 02:26:45;;;;;;;;;5.00;5.00;;;;;-145.01;100.00;59511.53;4897311;29;46271;-74
2021/07/25 02:29:11;;;;;;;;;1.50;1.50;;;;;-145.01;100.00;59511.53;4898158;29;45615;-74
2021/07/25 02:31:36;;;;;;;;;4.25;3.00;;;;;-145.01;100.00;59511.53;4897404;29;45462;-72
2021/07/25 02:34:01;;;;;;;;;4.00;2.50;;;;;-145.01;100.00;59511.53;4897228;29;45488;-72
2021/07/25 02:36:27;;;;;;;;;3.00;3.00;;;;;-145.01;100.00;59511.53;4897187;29;47294;-72
2021/07/25 02:38:52;;;;;;;;;5.00;5.00;;;;;-145.01;100.00;59511.53;4897652;29;45388;-72
2021/07/25 02:41:17;;;;;;;;;1.50;1.50;;;;;-145.01;100.00;59511.53;4898429;29;45458;-72
2021/07/25 02:43:43;;;;;;;;;5.00;3.75;;;;;-145.01;100.00;59511.53;4897512;29;45266;-72
2021/07/25 02:46:08;;;;;;;;;4.00;3.75;;;;;-145.01;100.00;59511.53;4897341;29;47347;-72
2021/07/25 02:48:34;;;;;;;;;5.25;4.00;;;;;-145.01;100.00;59511.53;4879976;29;45506;-72
2021/07/25 02:51:00;;;;;;;;;5.75;3.75;;;;;-145.01;100.00;59511.53;4897500;29;45674;-74
2021/07/25 02:53:26;;;;;;;;;3.00;3.00;;;;;-145.01;100.00;59511.53;4897840;29;45435;-71
2021/07/25 02:55:53;;;;;;;;;3.75;2.75;;;;;-145.01;100.00;59511.53;4897597;29;45594;-74
2021/07/25 02:58:18;;;;;;;;;3.00;3.00;;;;;-145.01;100.00;59511.53;4897192;29;45443;-72
2021/07/25 03:00:43;;;;;;;;;2.75;2.75;;;;;-145.01;100.00;59511.53;4897406;29;45344;-72
2021/07/25 03:03:09;;;;;;;;;3.00;2.25;;;;;-145.01;100.00;59511.53;4897089;29;45394;-71
2021/07/25 03:05:34;;;;;;;;;2.25;2.25;;;;;-145.01;100.00;59511.53;4897148;29;46373;-72
2021/07/25 03:07:59;;;;;;;;;2.50;2.50;;;;;-145.01;100.00;59511.53;4897893;29;45396;-72
2021/07/25 03:10:25;;;;;;;;;3.25;3.25;;;;;-145.01;100.00;59511.53;4896997;29;45229;-72
2021/07/25 03:12:51;;;;;;;;;3.75;3.00;;;;;-145.01;100.00;59511.53;4897850;29;45197;-72
2021/07/25 03:15:16;;;;;;;;;3.00;2.00;;;;;-145.01;100.00;59511.53;4900117;29;46426;-72
2021/07/25 03:17:41;;;;;;;;;2.00;2.00;;;;;-145.01;100.00;59511.53;4899975;29;45246;-72
2021/07/25 03:20:07;;;;;;;;;3.75;2.25;;;;;-145.01;100.00;59511.53;4901111;29;45482;-71
2021/07/25 03:22:34;;;;;;;;;3.50;3.50;;;;;-145.01;100.00;59511.53;4900059;29;45274;-73
2021/07/25 03:25:00;;;;;;;;;4.50;4.00;;;;;-145.01;100.00;59511.53;4899600;29;46066;-72
2021/07/25 03:27:25;;;;;;;;;6.00;5.75;;;;;-145.01;100.00;59511.53;4899897;29;45490;-72
2021/07/25 03:29:50;;;;;;;;;2.25;2.25;;;;;-145.01;100.00;59511.53;4900113;29;45439;-72
2021/07/25 03:32:18;;;;;;;;;5.00;4.00;;;;;-145.01;100.00;59511.53;4900445;29;45676;-72
2021/07/25 03:34:45;;;;;;;;;4.25;3.75;;;;;-145.01;100.00;59511.53;4899978;29;45595;-73
2021/07/25 03:37:10;;;;;;;;;3.00;3.00;;;;;-145.01;100.00;59511.53;4899951;29;45593;-72
2021/07/25 03:39:36;;;;;;;;;2.50;2.50;;;;;-145.01;100.00;59511.53;4899971;29;45472;-72
2021/07/25 03:42:01;;;;;;;;;4.50;4.50;;;;;-145.01;100.00;59511.53;4899961;29;45491;-72
2021/07/25 03:44:27;;;;;;;;;2.50;2.50;;;;;-145.01;100.00;59511.53;4899851;29;46582;-72
2021/07/25 03:46:53;;;;;;;;;5.00;3.50;;;;;-145.01;100.00;59511.53;4900056;29;45357;-73
2021/07/25 03:49:18;;;;;;;;;2.00;2.00;;;;;-145.01;100.00;59511.53;4899956;29;45642;-72
2021/07/25 03:51:44;;;;;;;;;4.50;4.50;;;;;-145.01;100.00;59511.53;4899716;29;45318;-72
2021/07/25 03:54:10;;;;;;;;;4.00;3.50;;;;;-145.01;100.00;59511.53;4899919;29;46596;-72
2021/07/25 03:56:35;;;;;;;;;4.50;3.75;;;;;-145.01;100.00;59511.53;4899954;29;45502;-72
2021/07/25 03:59:01;;;;;;;;;2.50;2.50;;;;;-145.01;100.00;59511.53;4868935;29;45513;-72
2021/07/25 04:01:27;;;;;;;;;7.00;4.50;;;;;-145.01;100.00;59511.53;4896773;29;45567;-72
2021/07/25 04:03:52;;;;;;;;;4.00;4.00;;;;;-145.01;100.00;59511.53;4899620;28;46075;-72
2021/07/25 04:06:17;;;;;;;;;4.75;4.00;;;;;-145.01;100.00;59511.53;4899438;29;45423;-72
2021/07/25 04:08:43;;;;;;;;;2.25;2.25;;;;;-145.01;100.00;59511.53;4882201;29;45520;-72
2021/07/25 04:11:08;;;;;;;;;6.00;4.00;;;;;-145.01;100.00;59511.53;4899900;29;45446;-72
2021/07/25 04:13:33;;;;;;;;;3.00;3.00;;;;;-145.01;100.00;59511.53;4882284;29;47465;-72
2021/07/25 04:15:59;;;;;;;;;3.50;3.00;;;;;-145.01;100.00;59511.53;4899259;29;45584;-72
2021/07/25 04:18:25;;;;;;;;;2.75;2.00;;;;;-145.01;100.00;59511.53;4899707;29;45468;-73
2021/07/25 04:20:53;;;;;;;;;3.00;2.00;;;;;-145.01;100.00;59511.53;4899564;29;45246;-73
2021/07/25 04:23:19;;;;;;;;;2.00;2.00;;;;;-145.01;100.00;59511.53;4900061;29;45670;-73
2021/07/25 04:25:44;;;;;;;;;3.25;3.25;;;;;-145.01;100.00;59511.53;4898230;29;45376;-72
2021/07/25 04:28:10;;;;;;;;;4.75;3.75;;;;;-145.01;100.00;59511.53;4899401;29;45538;-73
2021/07/25 04:30:36;;;;;;;;;4.50;3.00;;;;;-145.01;100.00;59511.53;4898969;29;47620;-72
2021/07/25 04:33:02;;;;;;;;;3.75;3.25;;;;;-145.01;100.00;59511.53;4899044;29;45506;-73
2021/07/25 04:35:30;;;;;;;;;5.75;4.50;;;;;-145.01;100.00;59511.53;4899235;29;45501;-73
2021/07/25 04:37:56;;;;;;;;;2.50;2.50;;;;;-145.01;100.00;59511.53;4899742;29;45542;-73
2021/07/25 04:40:24;;;;;;;;;3.50;3.00;;;;;-145.01;100.00;59511.53;4899036;29;45268;-72
2021/07/25 04:42:54;;;;;;;;;4.75;4.75;;;;;-145.01;100.00;59511.53;4899139;29;45659;-72
2021/07/25 04:45:38;;;;;;;;;4.50;4.50;;;;;-145.01;100.00;59511.53;4898587;29;45455;-72
2021/07/25 04:48:22;;;;;;;;;4.75;4.00;;;;;-145.01;100.00;59511.53;4886190;29;45547;-72
2021/07/25 04:50:54;;;;;;;;;5.75;4.00;;;;;-145.01;100.00;59511.53;4899003;29;45510;-72
2021/07/25 04:53:27;;;;;;;;;3.00;3.00;;;;;-145.01;100.00;59511.53;4895985;29;46310;-72
2021/07/25 04:55:58;;;;;;;;;3.00;3.00;;;;;-145.01;100.00;59511.53;4899086;29;46151;-72
2021/07/25 04:58:48;;;;;;;;;4.00;4.00;;;;;-145.01;100.00;59511.53;4898406;29;45542;-72
2021/07/25 05:01:18;;;;;;;;;5.25;5.00;;;;;-145.01;100.00;59511.53;4875241;29;45568;-72
2021/07/25 05:03:45;;;;;;;;;7.00;6.00;;;;;-145.01;100.00;59511.53;4897296;29;46192;-72
2021/07/25 05:06:12;;;;;;;;;4.50;4.00;;;;;-145.01;100.00;59511.53;4897326;29;45364;-72
2021/07/25 05:08:38;;;;;;;;;5.50;5.00;;;;;-145.01;100.00;59511.53;4897550;29;45344;-72
2021/07/25 05:11:14;;;;;;;;;4.75;4.75;;;;;-145.01;100.00;59511.53;4897722;29;45278;-72
2021/07/25 05:13:55;;;;;;;;;2.00;1.00;;;;;-145.01;100.00;59511.53;4896344;29;45574;-72
2021/07/25 05:16:31;;;;;;;;;5.75;5.00;;;;;-145.01;100.00;59511.53;4897223;29;45484;-72
2021/07/25 05:19:15;;;;;;;;;3.75;3.75;;;;;-145.01;100.00;59511.53;4897226;29;45528;-72
2021/07/25 05:21:43;;;;;;;;;6.00;5.00;;;;;-145.01;100.00;59511.53;4891847;29;45372;-72
2021/07/25 05:24:09;;;;;;;;;5.50;4.00;;;;;-145.01;100.00;59511.53;4896956;29;46266;-72
2021/07/25 05:26:36;;;;;;;;;3.75;3.75;;;;;-145.01;100.00;59511.53;4897212;29;45560;-72
2021/07/25 05:29:03;;;;;;;;;7.75;5.75;;;;;-145.01;100.00;59511.53;4895416;29;45402;-72
2021/07/25 05:31:33;;;;;;;;;6.25;4.00;;;;;-145.01;100.00;59511.53;4896610;29;45496;-72
2021/07/25 05:33:59;;;;;;;;;7.50;3.75;;;;;-145.01;100.00;59511.53;4896696;29;46166;-72
2021/07/25 05:36:25;;;;;;;;;5.25;4.25;;;;;-145.01;100.00;59511.53;4896345;29;45498;-72
2021/07/25 05:38:51;;;;;;;;;6.00;4.75;;;;;-145.01;100.00;59511.53;4896863;29;45441;-73
2021/07/25 05:41:16;;;;;;;;;4.75;4.75;;;;;-145.01;100.00;59511.53;4864946;29;45458;-72
2021/07/25 05:43:41;;;;;;;;;6.25;3.75;;;;;-145.01;100.00;59511.53;4895609;29;45512;-73
2021/07/25 05:46:07;;;;;;;;;4.00;4.00;;;;;-145.01;100.00;59511.53;4896584;29;45428;-73
2021/07/25 05:48:32;;;;;;;;;7.50;6.25;;;;;-145.01;100.00;59511.53;4874453;29;45636;-72
2021/07/25 05:51:02;;;;;;;;;6.00;6.00;;;;;-145.01;100.00;59511.53;4878396;29;45518;-73
2021/07/25 05:53:28;;;;;;;;;6.50;4.00;;;;;-145.01;100.00;59511.53;4896831;29;45672;-73
2021/07/25 05:55:53;;;;;;;;;5.75;5.00;;;;;-145.01;100.00;59511.53;4896711;29;46635;-72
2021/07/25 05:58:18;;;;;;;;;8.50;6.00;;;;;-145.01;100.00;59511.53;4896264;29;45505;-73
2021/07/25 06:00:43;;;;;;;;;5.00;5.00;;;;;-145.01;100.00;59511.53;4856137;29;1196980;-74
2021/07/25 06:03:09;;;;;;;;;7.25;6.00;;;;;-145.01;100.00;59511.53;4897625;29;45501;-72
2021/07/25 06:05:36;;;;;;;;;6.25;5.25;;;;;-145.01;100.00;59511.53;4897707;29;45563;-73
2021/07/25 06:08:04;;;;;;;;;7.50;5.00;;;;;-145.01;100.00;59511.53;4896321;29;45344;-73
2021/07/25 06:10:31;;;;;;;;;8.25;8.25;;;;;-145.01;100.00;59511.53;4880363;29;45492;-73
2021/07/25 06:12:59;;;;;;;;;6.50;4.00;;;;;-145.01;100.00;59511.53;4897344;29;46539;-73
2021/07/25 06:15:26;;;;;;;;;5.25;5.25;;;;;-145.01;100.00;59511.53;4897812;29;45441;-73
2021/07/25 06:17:52;;;;;;;;;4.25;3.75;;;;;-145.01;100.00;59511.53;4895312;29;45487;-73
2021/07/25 06:20:18;;;;;;;;;6.00;6.00;;;;;-145.01;100.00;59511.53;4893900;29;45418;-73
2021/07/25 06:22:49;;;;;;;;;5.75;4.25;;;;;-145.01;100.00;59511.53;4897203;29;46178;-73
2021/07/25 06:25:23;;;;;;;;;8.50;7.75;;;;;-145.01;100.00;59511.53;4896680;29;45570;-73
2021/07/25 06:27:51;;;;;;;;;5.50;5.50;;;;;-145.01;100.00;59511.53;4896913;29;45539;-73
2021/07/25 06:30:21;;;;;;;;;2.75;2.75;;;;;-145.01;100.00;59511.53;4897143;29;45643;-73
2021/07/25 06:33:07;;;;;;;;;8.00;7.00;;;;;-145.01;100.00;59511.53;4897130;29;45422;-73
2021/07/25 06:35:34;;;;;;;;;8.00;7.00;;;;;-145.01;100.00;59511.53;4895168;29;45453;-73
2021/07/25 06:38:02;;;;;;;;;7.75;6.50;;;;;-145.01;100.00;59511.53;4880941;29;45537;-73
2021/07/25 06:40:29;;;;;;;;;6.50;5.25;;;;;-145.01;100.00;59511.53;4896824;29;45436;-72
2021/07/25 06:42:56;;;;;;;;;10.00;8.50;;;;;-145.01;100.00;59511.53;4897153;29;46333;-73
2021/07/25 06:45:22;;;;;;;;;11.00;10.25;;;;;-145.01;100.00;59511.53;4896844;29;45480;-73
2021/07/25 06:47:49;;;;;;;;;7.00;5.50;;;;;-145.01;100.00;59511.53;4898445;28;45258;-73
2021/07/25 06:50:24;;;;;;;;;9.25;6.25;;;;;-145.01;100.00;59511.53;4901000;29;45402;-73
2021/07/25 06:52:51;;;;;;;;;4.00;4.00;;;;;-145.01;100.00;59511.53;4900221;29;46930;-73
2021/07/25 06:55:19;;;;;;;;;6.25;6.00;;;;;-145.01;100.00;59511.53;4890728;29;45616;-73
2021/07/25 06:57:45;;;;;;;;;8.50;8.50;;;;;-145.01;100.00;59511.53;4900439;29;45263;-73
2021/07/25 07:00:10;;;;;;;;;12.25;8.75;;;;;-145.01;100.00;59511.53;4900094;29;45383;-73
2021/07/25 07:02:49;;;;;;;;;9.75;8.00;;;;;-145.01;100.00;59511.53;4899791;29;46931;-73
2021/07/25 07:05:16;;;;;;;;;8.00;8.00;;;;;-145.01;100.00;59511.53;4900232;29;45380;-74
2021/07/25 07:07:42;;;;;;;;;10.75;9.00;;;;;-145.01;100.00;59511.53;4899930;29;45533;-73
2021/07/25 07:10:08;;;;;;;;;8.75;8.75;;;;;-145.01;100.00;59511.53;4891892;29;45489;-72
2021/07/25 07:12:35;;;;;;;;;13.00;5.50;;;;;-145.01;100.00;59511.53;4900177;29;46099;-72
2021/07/25 07:15:02;;;;;;;;;7.00;5.00;;;;;-145.01;100.00;59511.53;4900320;29;45385;-73
2021/07/25 07:17:27;;;;;;;;;7.75;7.00;;;;;-145.01;100.00;59511.53;4900253;29;45321;-74
2021/07/25 07:19:52;;;;;;;;;6.75;6.75;;;;;-145.01;100.00;59511.53;4900226;29;45588;-74
2021/07/25 07:22:30;;;;;;;;;11.25;10.00;;;;;-145.01;100.00;59511.53;4899481;29;46778;-73
2021/07/25 07:24:57;;;;;;;;;7.00;7.00;;;;;-145.01;100.00;59511.53;4899701;29;45513;-73
2021/07/25 07:27:24;;;;;;;;;10.00;9.00;;;;;-145.01;100.00;59511.53;4899933;29;45496;-74
2021/07/25 07:29:54;;;;;;;;;8.75;5.75;;;;;-145.01;100.00;59511.53;4884903;29;45405;-73
2021/07/25 07:32:20;;;;;;;;;9.50;8.00;;;;;-145.01;100.00;59511.53;4896376;29;46429;-74
2021/07/25 07:34:45;;;;;;;;;10.00;9.00;;;;;-145.01;100.00;59511.53;4899546;29;45403;-73
2021/07/25 07:37:11;;;;;;;;;10.50;10.50;;;;;-145.01;100.00;59511.53;4899867;29;45817;-72
2021/07/25 07:39:40;;;;;;;;;9.50;8.25;;;;;-145.01;100.00;59511.53;4899273;29;45400;-72
2021/07/25 07:42:07;;;;;;;;;8.25;6.25;;;;;-145.01;100.00;59511.53;4899120;29;45292;-73
2021/07/25 07:44:34;;;;;;;;;8.50;7.50;;;;;-145.01;100.00;59511.53;4882827;29;45504;-73
2021/07/25 07:46:59;;;;;;;;;11.50;9.50;;;;;-145.01;100.00;59511.53;4899895;29;45352;-73
2021/07/25 07:49:25;;;;;;;;;5.50;4.75;;;;;-145.01;100.00;59511.53;4899259;29;45366;-73
2021/07/25 07:51:51;;;;;;;;;7.00;7.00;;;;;-145.01;100.00;59511.53;4898752;29;46116;-73
2021/07/25 07:54:16;;;;;;;;;9.75;9.00;;;;;-145.01;100.00;59511.53;4899304;29;45619;-73
2021/07/25 07:56:42;;;;;;;;;10.00;10.00;;;;;-145.01;100.00;59511.53;4899572;28;45595;-75
2021/07/25 07:59:07;;;;;;;;;13.50;11.75;;;;;-145.01;100.00;59511.53;4900333;29;45489;-72
2021/07/25 08:01:32;;;;;;;;;8.25;7.75;;;;;-145.01;100.00;59511.53;4899270;29;45692;-73
2021/07/25 08:03:58;;;;;;;;;8.75;7.75;;;;;-145.01;100.00;59511.53;4898817;29;45409;-72
2021/07/25 08:06:23;;;;;;;;;9.25;8.25;;;;;-145.01;100.00;59511.53;4899215;29;45422;-71
2021/07/25 08:08:48;;;;;;;;;9.50;9.50;;;;;-145.01;100.00;59511.53;4899214;29;45305;-72
2021/07/25 08:11:14;;;;;;;;;10.75;8.75;;;;;-145.01;100.00;59511.53;4899655;29;46190;-72
2021/07/25 08:13:39;;;;;;;;;7.50;7.50;;;;;-145.01;100.00;59511.53;4898929;29;45536;-73
2021/07/25 08:16:05;;;;;;;;;10.50;10.50;;;;;-145.01;100.00;59511.53;4898898;29;45391;-73
2021/07/25 08:18:31;;;;;;;;;7.75;7.50;;;;;-145.01;100.00;59511.53;4898949;29;45472;-73
2021/07/25 08:20:56;;;;;;;;;9.00;9.00;;;;;-145.01;100.00;59511.53;4898597;29;46052;-75
2021/07/25 08:23:21;;;;;;;;;5.25;5.25;;;;;-145.01;100.00;59511.53;4899607;29;45372;-73
2021/07/25 08:25:47;;;;;;;;;12.25;12.25;;;;;-145.01;100.00;59511.53;4899440;29;45298;-73
2021/07/25 08:28:13;;;;;;;;;12.00;11.00;;;;;-145.01;100.00;59511.53;4898658;29;46542;-73
2021/07/25 08:30:38;;;;;;;;;9.50;9.50;;;;;-145.01;100.00;59511.53;4898420;29;46069;-73
2021/07/25 08:33:03;;;;;;;;;11.25;9.00;;;;;-145.01;100.00;59511.53;4899022;29;45282;-73
2021/07/25 08:35:29;;;;;;;;;13.00;10.25;;;;;-145.01;100.00;59511.53;4898751;28;45360;-73
2021/07/25 08:37:54;;;;;;;;;11.25;11.00;;;;;-145.01;100.00;59511.53;4898903;29;45498;-73
2021/07/25 08:40:24;;;;;;;;;10.25;10.25;;;;;-145.01;100.00;59511.53;4898336;29;45331;-73
2021/07/25 08:43:09;;;;;;;;;11.75;9.00;;;;;-145.01;100.00;59511.53;4898581;29;45431;-74
2021/07/25 08:45:44;;;;;;;;;8.50;8.50;;;;;-145.01;100.00;59511.53;4898386;29;45492;-72
2021/07/25 08:48:16;;;;;;;;;10.00;8.75;;;;;-145.01;100.00;59511.53;4898612;29;45447;-72
2021/07/25 08:50:58;;;;;;;;;12.00;10.75;;;;;-145.01;100.00;59511.53;4897561;29;45442;-72
2021/07/25 08:53:27;;;;;;;;;12.25;9.00;;;;;-145.01;100.00;59511.53;4895163;29;45182;-72
2021/07/25 08:55:53;;;;;;;;;12.25;10.00;;;;;-145.01;100.00;59511.53;4898301;29;45543;-72
2021/07/25 08:58:22;;;;;;;;;10.50;10.50;;;;;-145.01;100.00;59511.53;4897824;29;45489;-72
2021/07/25 09:00:50;;;;;;;;;10.00;9.00;;;;;-145.01;100.00;59511.53;4897542;29;47973;-72
2021/07/25 09:03:17;;;;;;;;;12.00;10.75;;;;;-145.01;100.00;59511.53;4898170;29;45541;-72
2021/07/25 09:05:43;;;;;;;;;15.50;14.50;;;;;-145.01;100.00;59511.53;4898276;29;45360;-72
2021/07/25 09:08:09;;;;;;;;;8.50;8.50;;;;;-145.01;100.00;59511.53;4899215;29;45510;-72
2021/07/25 09:10:35;;;;;;;;;12.00;10.25;;;;;-145.01;100.00;59511.53;4897596;29;46022;-72
2021/07/25 09:13:00;;;;;;;;;9.00;9.00;;;;;-145.01;100.00;59511.53;4897981;29;45459;-72
2021/07/25 09:15:29;;;;;;;;;10.75;9.75;;;;;-145.01;100.00;59511.53;4898009;29;45311;-71
2021/07/25 09:17:57;;;;;;;;;9.50;9.50;;;;;-145.01;100.00;59511.53;4897819;29;45570;-72
2021/07/25 09:20:29;;;;;;;;;9.75;9.75;;;;;-145.01;100.00;59511.53;4898216;29;45403;-72
2021/07/25 09:23:00;;;;;;;;;11.75;11.75;;;;;-145.01;100.00;59511.53;4880391;29;45508;-72
2021/07/25 09:25:25;;;;;;;;;9.75;9.75;;;;;-145.01;100.00;59511.53;4897928;29;45365;-72
2021/07/25 09:27:56;;;;;;;;;8.75;8.50;;;;;-145.01;100.00;59511.53;4898195;29;45282;-72
2021/07/25 09:30:24;;;;;;;;;8.25;6.25;;;;;-145.01;100.00;59511.53;4897923;29;46295;-72
2021/07/25 09:32:50;;;;;;;;;8.25;7.50;;;;;-145.01;100.00;59511.53;4897753;29;45337;-72
2021/07/25 09:35:26;;;;;;;;;7.75;7.75;;;;;-145.01;100.00;59511.53;4898146;29;45327;-72
2021/07/25 09:37:56;;;;;;;;;7.75;6.25;;;;;-145.01;100.00;59511.53;4898030;29;45337;-71
2021/07/25 09:40:26;;;;;;;;;8.00;8.00;;;;;-145.01;100.00;59511.53;4897164;29;46508;-73
2021/07/25 09:43:06;;;;;;;;;8.75;7.75;;;;;-145.01;100.00;59511.53;4897554;29;45465;-72
2021/07/25 09:45:32;;;;;;;;;6.50;6.00;;;;;-145.01;100.00;59511.53;4897788;29;45495;-72
2021/07/25 09:48:09;;;;;;;;;6.50;4.75;;;;;-145.01;100.00;59511.53;4897344;29;45363;-73
2021/07/25 09:50:35;;;;;;;;;5.75;5.25;;;;;-145.01;100.00;59511.53;4897324;29;46044;-72
2021/07/25 09:53:01;;;;;;;;;5.75;5.75;;;;;-145.01;100.00;59511.53;4898068;29;45347;-72
2021/07/25 09:55:30;;;;;;;;;6.00;6.00;;;;;-145.01;100.00;59511.53;4897756;28;45471;-72
2021/07/25 09:57:55;;;;;;;;;6.50;5.25;;;;;-145.01;100.00;59511.53;4897581;29;45523;-72
2021/07/25 10:00:21;;;;;;;;;7.00;5.00;;;;;-145.01;100.00;59511.53;4897177;29;45671;-72
2021/07/25 10:02:47;;;;;;;;;6.00;4.25;;;;;-145.01;100.00;59511.53;4896802;29;45508;-72
2021/07/25 10:05:19;;;;;;;;;6.00;6.00;;;;;-145.01;100.00;59511.53;4897995;29;45505;-72
2021/07/25 10:07:46;;;;;;;;;6.50;5.00;;;;;-145.01;100.00;59511.53;4897220;29;45618;-72
2021/07/25 10:10:17;;;;;;;;;9.00;8.25;;;;;-145.01;100.00;59511.53;4896499;29;46495;-72
2021/07/25 10:12:46;;;;;;;;;7.50;6.00;;;;;-145.01;100.00;59511.53;4896768;29;46388;-72
2021/07/25 10:15:16;;;;;;;;;6.50;5.50;;;;;-145.01;100.00;59511.53;4895734;29;45323;-71
2021/07/25 10:17:44;;;;;;;;;10.25;9.00;;;;;-145.01;100.00;59511.53;4896601;29;45304;-72
2021/07/25 10:20:11;;;;;;;;;7.75;7.00;;;;;-145.01;100.00;59511.53;4897816;29;45360;-72
2021/07/25 10:22:38;;;;;;;;;7.75;7.00;;;;;-145.01;100.00;59511.53;4897738;29;45608;-72
2021/07/25 10:25:09;;;;;;;;;12.75;9.25;;;;;-145.01;100.00;59511.53;4900217;29;45516;-72
2021/07/25 10:27:38;;;;;;;;;10.50;10.50;;;;;-145.01;100.00;59511.53;4900293;29;45503;-73
2021/07/25 10:30:06;;;;;;;;;9.75;8.75;;;;;-145.01;100.00;59511.53;4900149;29;46585;-72
2021/07/25 10:32:34;;;;;;;;;9.75;9.75;;;;;-145.01;100.00;59511.53;4899962;28;45509;-72
2021/07/25 10:35:08;;;;;;;;;10.25;10.25;;;;;-145.01;100.00;59511.53;4900769;29;45382;-72
2021/07/25 10:37:37;;;;;;;;;8.25;8.00;;;;;-145.01;100.00;59511.53;4899989;29;45429;-72
2021/07/25 10:40:05;;;;;;;;;7.75;7.00;;;;;-145.01;100.00;59511.53;4882229;29;48455;-72
2021/07/25 10:42:34;;;;;;;;;9.75;9.75;;;;;-145.01;100.00;59511.53;4899408;29;45365;-72
2021/07/25 10:45:00;;;;;;;;;7.00;7.00;;;;;-145.01;100.00;59511.53;4900447;29;45509;-72
2021/07/25 10:47:31;;;;;;;;;10.25;8.75;;;;;-145.01;100.00;59511.53;4900609;29;45628;-72
2021/07/25 10:49:59;;;;;;;;;9.75;9.25;;;;;-145.01;100.00;59511.53;4899149;29;45362;-73
2021/07/25 10:52:25;;;;;;;;;6.25;6.25;;;;;-145.01;100.00;59511.53;4899779;29;45510;-72
2021/07/25 10:54:51;;;;;;;;;14.75;14.00;;;;;-145.01;100.00;59511.53;4900045;29;45379;-72
2021/07/25 10:57:18;;;;;;;;;13.25;13.25;;;;;-145.01;100.00;59511.53;4899886;29;45498;-72
2021/07/25 10:59:50;;;;;;;;;8.50;7.00;;;;;-145.01;100.00;59511.53;4899315;29;46664;-73
2021/07/25 11:02:22;;;;;;;;;12.25;9.00;;;;;-145.01;100.00;59511.53;4899938;29;45548;-73
2021/07/25 11:04:50;;;;;;;;;9.25;7.25;;;;;-145.01;100.00;59511.53;4899728;29;45502;-73
2021/07/25 11:07:21;;;;;;;;;15.00;13.75;;;;;-145.01;100.00;59511.53;4899617;29;45401;-72
2021/07/25 11:10:05;;;;;;;;;11.25;10.25;;;;;-145.01;100.00;59511.53;4899653;29;46306;-73